Time;durP1;ratioP1;P1;durP2;ratioP2;P2;SDS_P1;SDS_P2;PMS_P1;PMS_P2;Temp;Humidity;BMP_temperature;BMP_pressure;BME280_temperature;BME280_humidity;BME280_pressure;Samples;Min_cycle;Max_cycle;Signal;HPM_P1;HPM_P2
2021/05/28 00:02:12;;;;;;;2.70;1.33;;;;;;;7.83;86.33;101594.47;4939845;28;20067;-69
2021/05/28 00:04:37;;;;;;;1.93;1.63;;;;;;;7.88;86.31;101594.94;4973235;28;20448;-69
2021/05/28 00:07:02;;;;;;;2.53;1.90;;;;;;;7.85;86.54;101597.00;4955452;28;20482;-69
2021/05/28 00:09:30;;;;;;;4.33;2.47;;;;;;;7.85;87.03;101612.97;4955516;28;20049;-70
2021/05/28 00:11:55;;;;;;;6.15;1.77;;;;;;;7.86;86.77;101610.16;4939636;28;20035;-70
2021/05/28 00:14:21;;;;;;;3.77;1.80;;;;;;;7.80;86.66;101600.88;4972660;28;20049;-69
2021/05/28 00:16:46;;;;;;;2.73;1.53;;;;;;;7.71;86.58;101600.78;4972182;28;20039;-70
2021/05/28 00:19:12;;;;;;;2.47;1.38;;;;;;;7.66;87.01;101609.13;4972505;28;20055;-69
2021/05/28 00:21:38;;;;;;;2.07;1.40;;;;;;;7.60;86.66;101605.13;4939573;28;20479;-70
2021/05/28 00:24:04;;;;;;;2.57;1.47;;;;;;;7.49;86.60;101612.25;4955331;28;20038;-69
2021/05/28 00:26:29;;;;;;;3.15;1.50;;;;;;;7.44;86.97;101609.97;4972097;28;20125;-70
2021/05/28 00:28:55;;;;;;;2.07;1.40;;;;;;;7.36;86.80;101604.41;4955430;28;20114;-69
2021/05/28 00:31:20;;;;;;;2.33;1.33;;;;;;;7.29;87.36;101605.88;4972447;28;20058;-69
2021/05/28 00:33:46;;;;;;;3.67;1.70;;;;;;;7.34;88.08;101611.66;4972380;28;20372;-70
2021/05/28 00:36:12;;;;;;;2.92;1.77;;;;;;;7.34;87.78;101606.34;4939339;28;20403;-69
2021/05/28 00:38:38;;;;;;;3.05;1.83;;;;;;;7.27;87.43;101613.09;4972172;28;20042;-70
2021/05/28 00:41:04;;;;;;;2.83;1.15;;;;;;;7.17;87.10;101612.97;4972003;28;20054;-70
2021/05/28 00:43:30;;;;;;;1.50;1.40;;;;;;;7.15;87.50;101609.59;4955295;28;20515;-70
2021/05/28 00:45:55;;;;;;;6.45;1.30;;;;;;;7.04;87.00;101620.19;4972197;28;20031;-69
2021/05/28 00:48:20;;;;;;;4.33;1.50;;;;;;;6.91;86.92;101615.00;4955159;28;20468;-69
2021/05/28 00:50:46;;;;;;;2.03;1.63;;;;;;;6.79;86.73;101619.44;4939178;28;20037;-69
2021/05/28 00:53:13;;;;;;;4.13;1.40;;;;;;;6.75;87.00;101612.66;4954990;28;20070;-70
2021/05/28 00:55:38;;;;;;;4.43;1.60;;;;;;;6.69;86.94;101621.91;4954926;28;20404;-69
2021/05/28 00:58:04;;;;;;;3.43;1.67;;;;;;;6.71;87.84;101612.03;4938810;28;20034;-70
2021/05/28 01:00:31;;;;;;;2.20;1.33;;;;;;;6.65;87.33;101616.94;4971985;28;20323;-69
2021/05/28 01:02:56;;;;;;;2.25;1.27;;;;;;;6.58;87.25;101624.56;4955028;28;20069;-69
2021/05/28 01:05:21;;;;;;;1.90;1.30;;;;;;;6.50;86.85;101638.38;4954963;28;20038;-69
2021/05/28 01:07:47;;;;;;;2.27;1.70;;;;;;;6.52;87.69;101648.88;4972070;28;20520;-69
2021/05/28 01:10:13;;;;;;;4.57;1.70;;;;;;;6.50;87.46;101656.94;4938915;28;20039;-69
2021/05/28 01:12:40;;;;;;;2.00;1.80;;;;;;;6.51;87.79;101652.50;4956680;28;20066;-69
2021/05/28 01:15:07;;;;;;;4.40;3.17;;;;;;;6.59;89.05;101663.38;4958938;28;20023;-69
2021/05/28 01:17:33;;;;;;;6.93;2.75;;;;;;;6.84;90.36;101653.59;4958480;28;20050;-69
2021/05/28 01:19:58;;;;;;;5.07;4.00;;;;;;;7.03;90.85;101663.66;4958732;28;20368;-69
2021/05/28 01:22:24;;;;;;;4.57;2.33;;;;;;;7.07;90.75;101662.44;4975640;28;20460;-69
2021/05/28 01:24:50;;;;;;;4.93;3.35;;;;;;;7.04;91.05;101666.19;4975731;28;20030;-69
2021/05/28 01:27:17;;;;;;;7.80;4.77;;;;;;;7.06;91.09;101671.38;4958454;28;20372;-69
2021/05/28 01:29:43;;;;;;;7.97;5.55;;;;;;;7.16;91.38;101677.66;4958616;28;20129;-69
2021/05/28 01:32:08;;;;;;;10.88;4.63;;;;;;;7.17;91.33;101669.59;4975625;28;20114;-69
2021/05/28 01:34:34;;;;;;;8.80;4.77;;;;;;;7.24;91.47;101677.09;4958533;28;20039;-69
2021/05/28 01:36:59;;;;;;;8.43;4.73;;;;;;;7.22;91.20;101674.56;4975574;28;20460;-69
2021/05/28 01:39:24;;;;;;;9.97;5.60;;;;;;;7.14;91.37;101672.50;4975679;28;20046;-69
2021/05/28 01:41:50;;;;;;;8.10;4.87;;;;;;;7.19;91.52;101672.16;4958336;28;20046;-69
2021/05/28 01:44:17;;;;;;;8.23;5.23;;;;;;;7.15;90.89;101671.53;4975395;28;20034;-69
2021/05/28 01:46:43;;;;;;;17.10;5.10;;;;;;;7.09;91.33;101679.94;4975107;28;20042;-69
2021/05/28 01:49:08;;;;;;;10.40;6.20;;;;;;;7.11;91.53;101683.34;4975311;28;20540;-69
2021/05/28 01:51:34;;;;;;;7.50;5.13;;;;;;;7.14;91.64;101688.44;4975218;28;20030;-69
2021/05/28 01:54:00;;;;;;;8.17;5.20;;;;;;;7.06;91.00;101692.63;4975009;28;20038;-69
2021/05/28 01:56:26;;;;;;;9.77;6.18;;;;;;;6.94;91.55;101687.28;4957948;28;20042;-69
2021/05/28 01:58:53;;;;;;;8.00;5.35;;;;;;;6.93;91.28;101684.72;4958176;28;20093;-69
2021/05/28 02:01:18;;;;;;;7.60;4.95;;;;;;;6.86;91.04;101691.47;4958056;28;20045;-69
2021/05/28 02:03:44;;;;;;;9.37;5.07;;;;;;;6.79;91.24;101692.88;4941986;28;20058;-69
2021/05/28 02:06:09;;;;;;;11.80;5.10;;;;;;;6.68;90.98;101691.88;4974686;28;20039;-69
2021/05/28 02:08:34;;;;;;;9.43;5.67;;;;;;;6.67;91.46;101692.88;4957858;28;20121;-69
2021/05/28 02:11:00;;;;;;;8.60;5.10;;;;;;;6.65;91.49;101700.09;4957906;28;20026;-69
2021/05/28 02:13:25;;;;;;;10.82;5.80;;;;;;;6.56;91.70;101700.75;4941872;28;20363;-69
2021/05/28 02:15:51;;;;;;;12.23;5.47;;;;;;;6.48;91.82;101695.16;4957542;28;20038;-69
2021/05/28 02:18:16;;;;;;;10.40;5.93;;;;;;;6.45;91.95;101695.41;4957908;28;20069;-69
2021/05/28 02:20:42;;;;;;;11.27;6.03;;;;;;;6.46;92.31;101703.25;4941672;28;20635;-69
2021/05/28 02:23:07;;;;;;;9.97;5.27;;;;;;;6.38;91.86;101710.06;4974340;28;20100;-69
2021/05/28 02:25:32;;;;;;;8.80;4.87;;;;;;;6.24;91.54;101706.59;4957740;28;20069;-69
2021/05/28 02:27:58;;;;;;;6.00;5.13;;;;;;;6.03;91.03;101700.19;4957216;28;20368;-69
2021/05/28 02:30:23;;;;;;;7.50;4.67;;;;;;;6.17;92.10;101708.00;4957467;28;20121;-69
2021/05/28 02:32:49;;;;;;;8.63;4.97;;;;;;;6.10;91.76;101709.41;4941481;28;20121;-69
2021/05/28 02:35:14;;;;;;;6.50;5.57;;;;;;;6.09;91.57;101710.38;4957361;28;20066;-69
2021/05/28 02:37:40;;;;;;;9.10;4.75;;;;;;;5.98;91.02;101715.59;4940975;28;20074;-69
2021/05/28 02:40:07;;;;;;;7.37;4.13;;;;;;;5.87;90.81;101725.09;4941424;28;20039;-69
2021/05/28 02:42:34;;;;;;;8.57;4.88;;;;;;;5.83;91.08;101720.09;4957233;28;20043;-69
2021/05/28 02:44:59;;;;;;;6.10;4.80;;;;;;;5.76;90.80;101730.31;4974276;28;20181;-69
2021/05/28 02:47:25;;;;;;;7.23;4.80;;;;;;;5.65;90.47;101720.47;4974128;28;20113;-69
2021/05/28 02:49:51;;;;;;;8.77;5.50;;;;;;;5.65;90.72;101733.69;4974565;28;20042;-69
2021/05/28 02:52:17;;;;;;;7.80;5.22;;;;;;;5.63;90.72;101734.78;4957541;28;20621;-69
2021/05/28 02:54:43;;;;;;;18.27;5.55;;;;;;;5.57;90.11;101735.19;4957175;28;20042;-69
2021/05/28 02:57:08;;;;;;;9.25;4.38;;;;;;;5.49;90.05;101735.72;4956906;28;20049;-69
2021/05/28 02:59:34;;;;;;;7.67;4.33;;;;;;;5.50;90.45;101725.03;4957082;28;20042;-69
2021/05/28 03:01:59;;;;;;;8.33;4.50;;;;;;;5.52;90.29;101732.84;4973973;28;20035;-69
2021/05/28 03:04:24;;;;;;;7.03;4.70;;;;;;;5.53;90.23;101741.66;4973833;28;20460;-69
2021/05/28 03:06:50;;;;;;;6.40;4.50;;;;;;;5.54;90.32;101744.19;4973481;28;20278;-69
2021/05/28 03:09:15;;;;;;;6.03;3.87;;;;;;;5.46;90.05;101749.19;4956984;28;20035;-69
2021/05/28 03:11:40;;;;;;;7.87;4.40;;;;;;;5.40;89.98;101745.13;4956866;28;20117;-69
2021/05/28 03:14:06;;;;;;;10.00;5.03;;;;;;;5.48;90.60;101747.28;4940887;28;20445;-69
2021/05/28 03:16:33;;;;;;;7.20;4.67;;;;;;;5.53;90.78;101754.91;4956509;28;20054;-69
2021/05/28 03:19:04;;;;;;;10.32;5.70;;;;;;;5.46;90.32;101760.63;4956590;28;20035;-69
2021/05/28 03:23:55;;;;;;;9.63;4.90;;;;;;;5.51;90.07;101755.00;4974100;28;20050;-69
2021/05/28 03:26:23;;;;;;;11.70;5.00;;;;;;;5.57;90.17;101764.31;4956755;28;20101;-69
2021/05/28 03:28:48;;;;;;;5.88;4.10;;;;;;;5.56;89.87;101765.28;4956992;28;20087;-69
2021/05/28 03:31:14;;;;;;;7.13;4.80;;;;;;;5.65;90.28;101768.16;4974064;28;20018;-69
2021/05/28 03:33:40;;;;;;;6.00;3.93;;;;;;;5.75;90.27;101764.88;4973798;28;20114;-69
2021/05/28 03:36:06;;;;;;;7.97;5.28;;;;;;;5.83;90.34;101762.50;4955800;28;20038;-69
2021/05/28 03:38:32;;;;;;;13.82;5.22;;;;;;;6.03;90.36;101764.66;4956961;28;20046;-69
2021/05/28 03:40:57;;;;;;;9.63;5.30;;;;;;;6.15;90.58;101768.25;4940628;28;20031;-69
2021/05/28 03:43:23;;;;;;;8.02;4.13;;;;;;;6.26;90.53;101768.34;4956726;28;20632;-69
2021/05/28 03:45:48;;;;;;;8.30;4.40;;;;;;;6.39;90.64;101775.41;4973560;28;20038;-69
2021/05/28 03:48:14;;;;;;;8.57;4.80;;;;;;;6.52;90.45;101777.06;4956321;28;20070;-69
2021/05/28 03:50:39;;;;;;;11.07;5.57;;;;;;;6.59;90.06;101773.97;4940592;28;20618;-69
2021/05/28 03:53:04;;;;;;;5.57;4.43;;;;;;;6.68;90.23;101775.97;4973485;28;20039;-69
2021/05/28 03:55:30;;;;;;;19.03;5.30;;;;;;;6.75;89.97;101770.09;4956618;28;20170;-69
2021/05/28 03:57:55;;;;;;;7.53;4.47;;;;;;;6.87;90.21;101772.81;4956186;28;20070;-69
2021/05/28 04:00:22;;;;;;;7.90;4.57;;;;;;;6.95;89.91;101762.44;4956513;28;20105;-69
2021/05/28 04:02:47;;;;;;;9.43;4.57;;;;;;;7.08;89.76;101775.69;4973233;28;20129;-69
2021/05/28 04:05:14;;;;;;;6.83;4.37;;;;;;;7.17;89.85;101770.50;4956271;28;20108;-69
2021/05/28 04:07:40;;;;;;;9.52;4.78;;;;;;;7.33;89.61;101783.50;4972667;28;20034;-69
2021/05/28 04:10:05;;;;;;;7.87;4.10;;;;;;;7.43;89.24;101773.00;4972660;28;20393;-68
2021/05/28 04:12:31;;;;;;;7.32;4.65;;;;;;;7.50;88.71;101773.41;4955797;28;20372;-69
2021/05/28 04:14:56;;;;;;;14.07;4.20;;;;;;;7.64;88.61;101772.34;4955684;28;20079;-69
2021/05/28 04:17:21;;;;;;;6.57;4.30;;;;;;;7.72;88.33;101777.91;4972143;28;20031;-69
2021/05/28 04:19:47;;;;;;;6.63;4.00;;;;;;;7.77;87.38;101779.25;4955387;28;20046;-69
2021/05/28 04:22:12;;;;;;;5.53;4.03;;;;;;;7.89;87.29;101789.88;4972356;28;20045;-69
2021/05/28 04:24:38;;;;;;;6.90;3.57;;;;;;;8.14;87.59;101789.63;4939901;28;20464;-69
2021/05/28 04:27:04;;;;;;;5.20;4.07;;;;;;;8.17;85.35;101776.13;4955220;28;20289;-69
2021/05/28 04:29:29;;;;;;;6.43;3.60;;;;;;;8.12;84.32;101785.41;4955385;28;20297;-69
2021/05/28 04:31:54;;;;;;;6.43;4.00;;;;;;;8.24;84.37;101785.31;4972382;28;20102;-69
2021/05/28 04:34:20;;;;;;;5.80;3.70;;;;;;;8.37;82.84;101779.84;4939544;28;20034;-69
2021/05/28 04:36:45;;;;;;;9.33;3.77;;;;;;;8.57;80.28;101790.72;4972111;28;20027;-69
2021/05/28 04:39:11;;;;;;;4.27;2.83;;;;;;;8.72;80.23;101784.16;4972298;28;20109;-69
2021/05/28 04:41:36;;;;;;;3.50;2.67;;;;;;;8.81;78.54;101790.56;4972086;28;20035;-69
2021/05/28 04:44:02;;;;;;;4.03;2.87;;;;;;;9.03;77.37;101784.31;4972309;28;20042;-69
2021/05/28 04:46:27;;;;;;;6.47;2.70;;;;;;;9.00;75.67;101784.56;4972358;28;20488;-69
2021/05/28 04:48:53;;;;;;;7.40;2.83;;;;;;;9.24;76.86;101784.34;4954926;28;20039;-69
2021/05/28 04:51:18;;;;;;;5.07;2.90;;;;;;;9.60;75.62;101785.72;4972044;28;20495;-70
2021/05/28 04:53:44;;;;;;;6.20;2.60;;;;;;;9.97;75.02;101787.88;4939147;28;20475;-69
2021/05/28 04:56:09;;;;;;;11.83;4.73;;;;;;;9.85;74.93;101783.59;4954632;28;20072;-69
2021/05/28 04:58:34;;;;;;;7.53;3.03;;;;;;;9.75;73.56;101793.38;4972059;28;20376;-70
2021/05/28 05:01:00;;;;;;;12.63;4.13;;;;;;;9.55;73.98;101795.91;4954931;28;20057;-69
2021/05/28 05:03:25;;;;;;;4.00;2.83;;;;;;;9.76;74.26;101792.41;4971919;28;20049;-69
2021/05/28 05:05:50;;;;;;;4.33;2.30;;;;;;;9.84;74.53;101784.59;4954796;28;20038;-69
2021/05/28 05:08:16;;;;;;;5.50;2.80;;;;;;;9.81;73.84;101790.16;4971989;28;20304;-70
2021/05/28 05:10:41;;;;;;;5.63;2.50;;;;;;;9.81;74.59;101795.50;4955097;28;20042;-70
2021/05/28 05:13:14;;;;;;;4.50;2.77;;;;;;;10.13;74.92;101796.22;4972117;28;20038;-69
2021/05/28 05:15:39;;;;;;;3.88;2.80;;;;;;;9.92;72.54;101800.78;4938791;28;20057;-70
2021/05/28 05:18:08;;;;;;;4.73;2.67;;;;;;;10.42;72.97;101792.88;4954636;28;20471;-70
2021/05/28 05:20:35;;;;;;;4.30;3.03;;;;;;;10.52;70.62;101793.75;4971713;28;20274;-70
2021/05/28 05:23:01;;;;;;;4.72;2.40;;;;;;;10.41;71.91;101801.84;4971746;28;20037;-70
2021/05/28 05:25:26;;;;;;;7.03;3.60;;;;;;;10.67;71.82;101806.69;4971818;28;20031;-69
2021/05/28 05:27:52;;;;;;;6.30;3.13;;;;;;;11.27;70.00;101803.97;4954716;28;20368;-70
2021/05/28 05:30:18;;;;;;;11.07;4.60;;;;;;;12.12;67.77;101811.13;4971893;28;20031;-70
2021/05/28 05:32:43;;;;;;;4.88;2.95;;;;;;;12.86;64.85;101809.34;4955053;28;20130;-70
2021/05/28 05:35:09;;;;;;;5.40;3.47;;;;;;;13.47;61.94;101810.44;4955159;28;20532;-70
2021/05/28 05:37:34;;;;;;;6.40;3.60;;;;;;;13.69;60.91;101809.91;4954863;28;20369;-70
2021/05/28 05:39:59;;;;;;;7.43;3.83;;;;;;;12.92;62.08;101819.44;4957425;28;20030;-78
2021/05/28 05:42:25;;;;;;;8.23;2.93;;;;;;;13.06;63.22;101816.25;4972289;28;20511;-79
2021/05/28 05:44:50;;;;;;;7.77;3.30;;;;;;;13.94;60.40;101813.59;4972373;28;20376;-79
2021/05/28 05:47:16;;;;;;;5.73;3.33;;;;;;;14.84;58.67;101828.47;4952227;28;20148;-79
2021/05/28 05:49:41;;;;;;;6.37;3.93;;;;;;;15.11;56.82;101820.13;4952151;28;20070;-79
2021/05/28 05:52:06;;;;;;;5.40;4.10;;;;;;;14.57;58.04;101822.34;4952424;28;20050;-79
2021/05/28 05:54:33;;;;;;;6.67;4.20;;;;;;;13.67;60.21;101835.22;4952584;28;20047;-78
2021/05/28 05:56:58;;;;;;;9.50;5.65;;;;;;;13.06;63.57;101840.38;4952116;28;20043;-79
2021/05/28 05:59:24;;;;;;;9.20;5.97;;;;;;;11.95;67.21;101847.53;4971993;28;20055;-79
2021/05/28 06:01:50;;;;;;;11.35;6.40;;;;;;;11.24;70.83;101847.84;4956693;28;20157;-79
2021/05/28 06:04:15;;;;;;;12.02;7.60;;;;;;;10.81;73.00;101845.53;4975012;28;20468;-79
2021/05/28 06:06:41;;;;;;;15.53;8.40;;;;;;;10.53;74.33;101847.97;4957857;28;20113;-79
2021/05/28 06:09:07;;;;;;;12.77;7.97;;;;;;;10.33;74.33;101852.41;4957985;28;20034;-79
2021/05/28 06:11:32;;;;;;;15.35;9.95;;;;;;;9.94;75.12;101854.84;4975330;28;20038;-78
2021/05/28 06:13:57;;;;;;;20.07;9.97;;;;;;;9.90;76.66;101858.75;4975057;28;20043;-78
2021/05/28 06:16:23;;;;;;;15.57;8.40;;;;;;;9.62;78.05;101852.22;4957735;28;20456;-79
2021/05/28 06:18:48;;;;;;;17.10;10.60;;;;;;;9.72;78.00;101854.00;4974897;28;20053;-78
2021/05/28 06:21:14;;;;;;;14.10;9.13;;;;;;;9.78;76.85;101857.97;4957806;28;20369;-78
2021/05/28 06:23:39;;;;;;;15.37;9.20;;;;;;;9.89;77.51;101865.06;4957858;28;20053;-78
2021/05/28 06:26:04;;;;;;;15.57;8.37;;;;;;;10.12;77.85;101866.59;4974456;28;20121;-78
2021/05/28 06:28:30;;;;;;;16.07;9.40;;;;;;;9.96;76.81;101857.38;4941731;28;20142;-78
2021/05/28 06:30:56;;;;;;;13.47;7.67;;;;;;;10.38;76.67;101860.88;4975044;28;20050;-78
2021/05/28 06:33:22;;;;;;;13.10;8.55;;;;;;;10.89;74.84;101859.06;4957494;28;20407;-78
2021/05/28 06:35:47;;;;;;;14.55;8.15;;;;;;;10.81;74.09;101862.41;4957492;28;20131;-78
2021/05/28 06:38:12;;;;;;;13.10;7.87;;;;;;;10.54;75.92;101844.34;4974288;28;20111;-79
2021/05/28 06:40:39;;;;;;;18.07;8.17;;;;;;;10.29;75.36;101856.31;4957237;28;20050;-78
2021/05/28 06:43:05;;;;;;;10.57;7.10;;;;;;;10.66;74.03;101861.09;4974390;28;20126;-78
2021/05/28 06:45:30;;;;;;;9.57;7.47;;;;;;;10.74;73.64;101866.59;4974251;28;20118;-70
2021/05/28 06:47:55;;;;;;;14.95;7.32;;;;;;;10.73;73.94;101857.75;4974032;28;20121;-70
2021/05/28 06:50:22;;;;;;;10.87;7.00;;;;;;;10.63;72.86;101869.38;4974316;28;20046;-70
2021/05/28 06:52:47;;;;;;;10.50;6.78;;;;;;;12.04;70.03;101878.78;4957452;28;20049;-70
2021/05/28 06:55:14;;;;;;;14.30;7.47;;;;;;;12.71;66.96;101873.31;4957205;28;20058;-70
2021/05/28 06:57:39;;;;;;;13.18;7.30;;;;;;;13.15;63.87;101886.88;4973926;28;20038;-70
2021/05/28 07:00:07;;;;;;;12.97;7.50;;;;;;;13.57;63.01;101885.47;4957185;28;20035;-70
2021/05/28 07:02:33;;;;;;;12.23;7.20;;;;;;;13.41;63.42;101895.03;4956989;28;20367;-70
2021/05/28 07:04:58;;;;;;;10.13;6.63;;;;;;;13.10;65.86;101886.47;4956930;28;20038;-70
2021/05/28 07:07:24;;;;;;;9.60;6.37;;;;;;;13.18;65.08;101885.72;4940739;28;20049;-70
2021/05/28 07:09:49;;;;;;;12.53;6.03;;;;;;;13.32;63.40;101885.22;4955899;28;20080;-70
2021/05/28 07:12:14;;;;;;;11.87;5.90;;;;;;;13.70;61.08;101889.44;4973812;28;20045;-70
2021/05/28 07:14:40;;;;;;;12.30;5.83;;;;;;;13.74;61.85;101881.91;4973724;28;20073;-70
2021/05/28 07:17:06;;;;;;;11.52;7.40;;;;;;;12.37;64.06;101897.16;4940369;28;20137;-70
2021/05/28 07:19:32;;;;;;;8.60;6.77;;;;;;;12.05;65.72;101898.34;4973730;28;20039;-70
2021/05/28 07:21:57;;;;;;;17.88;6.72;;;;;;;11.40;66.88;101896.28;4956571;28;20156;-70
2021/05/28 07:24:22;;;;;;;11.73;7.10;;;;;;;11.18;69.57;101902.69;4956673;28;20513;-70
2021/05/28 07:26:48;;;;;;;11.53;7.87;;;;;;;11.40;69.08;101900.75;4973376;28;20047;-70
2021/05/28 07:29:13;;;;;;;14.80;7.60;;;;;;;11.11;69.33;101900.72;4973424;28;20077;-70
2021/05/28 07:31:39;;;;;;;15.93;9.07;;;;;;;11.57;69.83;101907.25;4973542;28;20066;-70
2021/05/28 07:34:05;;;;;;;13.57;8.30;;;;;;;11.68;68.24;101901.75;4973425;28;20290;-70
2021/05/28 07:36:30;;;;;;;16.13;8.80;;;;;;;11.71;68.61;101904.16;4956135;28;20045;-70
2021/05/28 07:38:55;;;;;;;14.47;8.17;;;;;;;11.24;68.80;101893.31;4956596;28;20031;-70
2021/05/28 07:41:21;;;;;;;14.33;8.83;;;;;;;11.32;69.23;101893.44;4940193;28;20826;-70
2021/05/28 07:43:46;;;;;;;13.23;7.93;;;;;;;11.61;68.39;101896.13;4956057;28;20034;-70
2021/05/28 07:46:12;;;;;;;17.23;7.47;;;;;;;11.45;69.08;101901.19;4972877;28;20765;-70
2021/05/28 07:48:37;;;;;;;15.63;8.60;;;;;;;11.50;68.51;101896.28;4940243;28;20043;-70
2021/05/28 07:51:03;;;;;;;14.00;7.70;;;;;;;11.48;68.07;101905.41;4956079;28;20031;-70
2021/05/28 07:53:29;;;;;;;15.68;9.25;;;;;;;11.40;69.87;101901.63;4956107;28;20043;-70
2021/05/28 07:55:58;;;;;;;18.75;8.60;;;;;;;11.50;68.74;101906.97;4939843;28;20042;-70
2021/05/28 07:58:25;;;;;;;16.40;8.30;;;;;;;11.10;69.53;101899.88;4955833;28;20081;-70
2021/05/28 08:00:50;;;;;;;12.27;7.13;;;;;;;11.29;71.07;101903.56;4972902;28;20046;-70
2021/05/28 08:03:15;;;;;;;15.53;6.43;;;;;;;11.53;70.10;101901.34;4973078;28;20313;-70
2021/05/28 08:05:41;;;;;;;17.60;7.80;;;;;;;11.66;69.47;101914.44;4972892;28;20153;-70
2021/05/28 08:08:10;;;;;;;15.80;7.63;;;;;;;11.38;69.66;101919.63;4972898;28;20368;-70
2021/05/28 08:10:36;;;;;;;12.10;6.75;;;;;;;11.15;70.17;101926.22;4939753;28;20049;-70
2021/05/28 08:13:02;;;;;;;12.88;6.15;;;;;;;11.24;70.14;101928.06;4955603;28;20443;-70
2021/05/28 08:15:28;;;;;;;12.37;7.40;;;;;;;11.05;71.93;101933.34;4972802;28;20035;-70
2021/05/28 08:17:53;;;;;;;11.40;6.10;;;;;;;11.04;69.81;101937.00;4972575;28;20376;-70
2021/05/28 08:20:19;;;;;;;15.53;6.40;;;;;;;10.99;70.01;101935.56;4972531;28;20473;-70
2021/05/28 08:22:45;;;;;;;17.70;7.45;;;;;;;10.85;70.81;101935.97;4939388;28;20357;-70
2021/05/28 08:25:11;;;;;;;14.93;7.28;;;;;;;10.87;71.28;101949.19;4972589;28;20127;-70
2021/05/28 08:27:36;;;;;;;;;;;;;;;10.87;70.13;101952.69;4955528;28;20117;-70
2021/05/28 08:30:03;;;;;;;;;;;;;;;10.65;71.65;101953.75;4972848;28;20021;-70
2021/05/28 08:32:28;;;;;;;17.42;8.18;;;;;;;10.54;71.45;101960.00;4972429;28;19946;-70
2021/05/28 08:34:53;;;;;;;15.73;8.10;;;;;;;10.26;72.57;101950.81;4972372;28;20491;-70
2021/05/28 08:37:19;;;;;;;16.20;8.03;;;;;;;10.32;73.17;101949.47;4972196;28;20031;-70
2021/05/28 08:39:44;;;;;;;17.33;7.97;;;;;;;10.30;73.15;101944.28;4955427;28;20035;-70
2021/05/28 08:42:10;;;;;;;9.27;6.23;;;;;;;10.40;72.69;101940.81;4939106;28;20444;-70
2021/05/28 08:44:36;;;;;;;13.88;6.85;;;;;;;10.60;72.42;101950.59;4939236;28;20460;-70
2021/05/28 08:47:03;;;;;;;17.02;7.25;;;;;;;10.46;72.07;101956.31;4955279;28;20344;-70
2021/05/28 08:49:28;;;;;;;;;;;;;;;10.63;73.34;101950.34;4955334;28;20181;-70
2021/05/28 08:51:55;;;;;;;;;;;;;;;10.54;72.67;101953.81;4972492;28;20008;-70
2021/05/28 08:54:20;;;;;;;;;;;;;;;10.53;72.77;101955.63;4972522;28;19922;-70
2021/05/28 08:56:50;;;;;;;15.82;7.35;;;;;;;10.42;73.28;101963.75;4938741;28;19914;-70
2021/05/28 08:59:15;;;;;;;16.55;7.22;;;;;;;10.57;74.46;101946.38;4971979;28;20050;-70
2021/05/28 09:01:41;;;;;;;18.13;7.97;;;;;;;10.84;72.54;101944.97;4955087;28;20042;-70
2021/05/28 09:04:07;;;;;;;12.67;7.13;;;;;;;11.02;73.61;101960.34;4955047;28;20620;-70
2021/05/28 09:06:43;;;;;;;16.90;8.25;;;;;;;11.09;72.85;101956.13;4971736;28;20403;-70
2021/05/28 09:09:11;;;;;;;15.57;6.82;;;;;;;11.07;71.93;101963.44;4938828;28;20042;-70
2021/05/28 09:12:12;;;;;;;15.13;8.27;;;;;;;11.07;72.54;101963.44;4955072;28;20098;-70
2021/05/28 09:14:40;;;;;;;14.43;7.82;;;;;;;10.83;73.07;101953.94;4893636;29;20088;-70
2021/05/28 09:17:08;;;;;;;18.90;8.30;;;;;;;10.76;73.04;101950.97;4943398;28;20061;-70
2021/05/28 09:19:34;;;;;;;15.48;7.57;;;;;;;10.99;73.62;101948.09;4954597;28;20043;-70
2021/05/28 09:22:02;;;;;;;18.05;7.88;;;;;;;10.89;72.82;101945.41;4955077;28;20106;-70
2021/05/28 09:24:39;;;;;;;16.08;7.60;;;;;;;11.07;71.58;101944.75;4938867;28;20054;-70
2021/05/28 09:27:23;;;;;;;16.80;8.10;;;;;;;11.50;71.49;101943.56;4971512;28;20037;-70
2021/05/28 09:30:07;;;;;;;12.93;7.43;;;;;;;11.87;68.57;101943.75;4971680;28;20100;-70
2021/05/28 09:32:35;;;;;;;16.35;6.82;;;;;;;12.17;68.91;101942.69;4971709;28;20035;-70
2021/05/28 09:35:01;;;;;;;14.77;7.93;;;;;;;12.07;67.64;101944.56;4958483;28;20046;-70
2021/05/28 09:37:47;;;;;;;16.63;7.15;;;;;;;12.21;66.06;101936.09;4975671;28;20622;-70
2021/05/28 09:40:17;;;;;;;11.50;5.45;;;;;;;12.32;65.99;101937.75;4958822;28;20051;-70
2021/05/28 09:42:56;;;;;;;11.02;5.40;;;;;;;12.42;67.82;101935.88;4958270;28;20061;-70
2021/05/28 09:45:30;;;;;;;11.73;5.20;;;;;;;12.25;65.51;101934.81;4958465;28;20050;-70
2021/05/28 09:47:59;;;;;;;17.50;5.82;;;;;;;12.43;67.77;101942.09;4975165;28;20035;-70
2021/05/28 09:50:32;;;;;;;18.10;6.63;;;;;;;12.79;66.61;101944.94;4975305;28;20027;-70
2021/05/28 09:52:57;;;;;;;13.73;5.65;;;;;;;12.71;66.63;101944.81;4975189;28;20035;-70
2021/05/28 09:55:25;;;;;;;11.25;5.20;;;;;;;12.97;66.10;101945.84;4958236;28;20334;-70
2021/05/28 09:57:53;;;;;;;12.15;5.72;;;;;;;13.20;64.36;101950.78;4941847;28;20030;-70
2021/05/28 10:00:28;;;;;;;12.00;5.55;;;;;;;12.83;64.44;101949.84;4958169;28;20117;-71
2021/05/28 10:03:16;;;;;;;10.15;5.45;;;;;;;12.73;65.24;101958.91;4958001;28;20057;-70
2021/05/28 10:05:44;;;;;;;8.95;4.95;;;;;;;12.66;65.09;101958.66;4941973;28;20058;-70
2021/05/28 10:08:11;;;;;;;10.95;5.28;;;;;;;12.60;64.74;101954.72;4974808;28;20031;-71
2021/05/28 10:10:39;;;;;;;10.38;4.78;;;;;;;12.87;65.64;101945.84;4975140;28;20045;-71
2021/05/28 10:13:12;;;;;;;14.52;5.25;;;;;;;13.00;64.42;101939.34;4957919;28;20479;-70
2021/05/28 10:15:43;;;;;;;11.30;5.40;;;;;;;13.13;64.36;101934.44;4957776;28;20034;-71
2021/05/28 10:18:09;;;;;;;9.73;4.90;;;;;;;14.65;59.89;101934.41;4957571;28;20027;-70
2021/05/28 10:20:37;;;;;;;6.18;4.00;;;;;;;14.88;59.91;101932.00;4957636;28;20039;-71
2021/05/28 10:23:02;;;;;;;7.20;4.32;;;;;;;14.88;59.21;101929.31;4974694;28;20050;-71
2021/05/28 10:25:28;;;;;;;11.63;4.85;;;;;;;15.53;58.71;101934.03;4941882;28;20030;-71
2021/05/28 10:27:59;;;;;;;8.13;3.97;;;;;;;16.34;54.96;101929.63;4957305;28;20045;-71
2021/05/28 10:30:27;;;;;;;10.05;4.38;;;;;;;16.86;54.33;101932.72;4941522;28;20030;-71
2021/05/28 10:33:15;;;;;;;10.32;4.93;;;;;;;17.45;51.84;101934.91;4974637;28;20018;-71
2021/05/28 10:35:45;;;;;;;11.70;4.80;;;;;;;17.55;52.60;101931.97;4974546;28;20372;-71
2021/05/28 10:38:29;;;;;;;7.18;4.15;;;;;;;18.29;50.43;101931.38;4974197;28;20050;-71
2021/05/28 10:40:55;;;;;;;11.90;5.40;;;;;;;17.53;51.18;101931.31;4957135;28;20049;-71
2021/05/28 10:43:20;;;;;;;9.48;4.85;;;;;;;17.80;50.28;101926.41;4957327;28;20074;-71
2021/05/28 10:46:03;;;;;;;9.90;4.27;;;;;;;17.85;48.85;101924.84;4974154;28;20066;-71
2021/05/28 10:48:41;;;;;;;11.15;4.40;;;;;;;18.35;48.73;101923.38;4957278;28;20097;-71
2021/05/28 10:51:15;;;;;;;8.32;4.57;;;;;;;16.59;50.64;101919.63;4974131;28;20054;-71
2021/05/28 10:54:01;;;;;;;7.68;4.70;;;;;;;16.87;51.14;101920.88;4941225;28;20445;-71
2021/05/28 10:56:46;;;;;;;11.43;5.15;;;;;;;17.39;49.92;101930.22;4956868;28;20042;-71
2021/05/28 10:59:20;;;;;;;7.20;4.45;;;;;;;17.66;50.37;101928.84;4940612;28;20104;-71
2021/05/28 11:01:52;;;;;;;9.15;5.28;;;;;;;17.79;49.01;101933.63;4956926;28;20045;-71
2021/05/28 11:04:37;;;;;;;11.88;4.88;;;;;;;16.84;52.85;101940.13;4973931;28;20042;-71
2021/05/28 11:07:03;;;;;;;9.82;4.93;;;;;;;17.43;51.65;101930.72;4943188;28;20042;-71
2021/05/28 11:09:43;;;;;;;9.27;4.57;;;;;;;17.87;50.96;101933.63;4974413;28;20463;-72
2021/05/28 11:12:09;;;;;;;10.23;5.10;;;;;;;18.05;52.54;101930.59;4956567;28;20038;-72
2021/05/28 11:14:40;;;;;;;;;;;;;;;19.09;48.48;101921.66;4974139;28;20038;-72
2021/05/28 11:17:05;;;;;;;10.63;4.57;;;;;;;19.75;49.31;101922.38;4940397;28;20094;-72
2021/05/28 11:19:33;;;;;;;12.63;4.13;;;;;;;19.74;48.48;101923.41;4956844;28;20094;-72
2021/05/28 11:22:04;;;;;;;11.45;4.18;;;;;;;20.10;47.01;101918.91;4973724;28;20102;-72
2021/05/28 11:24:52;;;;;;;9.73;4.70;;;;;;;20.11;46.42;101917.84;4956738;28;20045;-72
2021/05/28 11:27:20;;;;;;;12.23;4.88;;;;;;;20.13;45.82;101913.06;4940347;28;20487;-72
2021/05/28 11:29:51;;;;;;;10.52;3.95;;;;;;;20.32;46.77;101911.53;4956584;28;20041;-72